Time;durP1;ratioP1;P1;durP2;ratioP2;P2;SDS_P1;SDS_P2;PMS_P1;PMS_P2;Temp;Humidity;BMP_temperature;BMP_pressure;BME280_temperature;BME280_humidity;BME280_pressure;Samples;Min_cycle;Max_cycle;Signal;HPM_P1;HPM_P2
2022/06/26 00:02:00;;;;;;;5.40;4.40;;;21.50;99.90;;;;;;5091472;28;20678;-70
2022/06/26 00:04:27;;;;;;;6.93;4.97;;;21.50;99.90;;;;;;5090556;28;20242;-69
2022/06/26 00:06:55;;;;;;;6.43;4.40;;;21.50;99.90;;;;;;5088641;28;20236;-70
2022/06/26 00:09:22;;;;;;;6.20;4.57;;;21.40;99.90;;;;;;5091713;28;20672;-69
2022/06/26 00:11:50;;;;;;;8.17;5.30;;;21.40;99.90;;;;;;5090546;28;20286;-68
2022/06/26 00:14:17;;;;;;;6.03;4.63;;;21.40;99.90;;;;;;5091575;28;20684;-67
2022/06/26 00:16:44;;;;;;;7.53;5.07;;;21.30;99.90;;;;;;5091474;28;20763;-67
2022/06/26 00:19:11;;;;;;;7.53;4.77;;;21.30;99.90;;;;;;5089985;28;20210;-68
2022/06/26 00:21:37;;;;;;;5.17;4.37;;;21.30;99.90;;;;;;5091381;28;20210;-67
2022/06/26 00:24:05;;;;;;;8.53;4.50;;;21.20;99.90;;;;;;5091233;28;20218;-69
2022/06/26 00:26:32;;;;;;;5.07;4.03;;;21.20;99.90;;;;;;5091490;28;20225;-67
2022/06/26 00:29:00;;;;;;;5.90;4.37;;;21.20;99.90;;;;;;5090322;28;20204;-68
2022/06/26 00:31:27;;;;;;;5.97;4.70;;;21.10;99.90;;;;;;5091184;28;20211;-68
2022/06/26 00:33:54;;;;;;;5.57;4.13;;;21.10;99.90;;;;;;5091451;28;20304;-68
2022/06/26 00:36:21;;;;;;;6.83;4.50;;;21.10;99.90;;;;;;5095529;28;20297;-69
2022/06/26 00:38:48;;;;;;;9.37;4.33;;;21.00;99.90;;;;;;5094894;28;20227;-69
2022/06/26 00:41:15;;;;;;;5.20;4.40;;;21.00;99.90;;;;;;5094520;28;20250;-68
2022/06/26 00:43:42;;;;;;;5.47;4.50;;;21.00;99.90;;;;;;5094716;28;20235;-69
2022/06/26 00:46:10;;;;;;;8.20;4.50;;;21.00;99.90;;;;;;5095155;28;20311;-67
2022/06/26 00:48:36;;;;;;;6.47;4.70;;;21.00;99.90;;;;;;5094939;28;20616;-69
2022/06/26 00:51:04;;;;;;;6.40;4.50;;;21.00;99.90;;;;;;5094312;28;20210;-68
2022/06/26 00:53:31;;;;;;;6.17;4.10;;;21.00;99.90;;;;;;5094808;28;20207;-68
2022/06/26 00:55:58;;;;;;;6.20;4.57;;;21.00;99.90;;;;;;5095087;28;20210;-69
2022/06/26 00:58:25;;;;;;;6.13;4.33;;;21.00;99.90;;;;;;5094937;28;20303;-69
2022/06/26 01:00:52;;;;;;;7.37;4.70;;;21.00;99.90;;;;;;5094552;28;20218;-69
2022/06/26 01:03:20;;;;;;;6.87;4.30;;;21.00;99.90;;;;;;5094306;28;20204;-68
2022/06/26 01:05:47;;;;;;;6.17;4.73;;;21.00;99.90;;;;;;5094352;28;20231;-68
2022/06/26 01:08:14;;;;;;;6.80;4.90;;;21.00;99.90;;;;;;5094478;28;20252;-69
2022/06/26 01:10:41;;;;;;;7.70;5.57;;;21.00;99.90;;;;;;5093143;28;20294;-66
2022/06/26 01:13:08;;;;;;;12.43;8.00;;;21.00;99.90;;;;;;5094751;28;20206;-67
2022/06/26 01:15:35;;;;;;;17.53;10.57;;;21.00;99.90;;;;;;5093451;28;20200;-69
2022/06/26 01:18:02;;;;;;;13.70;9.80;;;21.00;99.90;;;;;;5093541;28;20643;-69
2022/06/26 01:20:31;;;;;;;17.10;12.10;;;20.90;99.90;;;;;;5094464;28;20568;-68
2022/06/26 01:23:01;;;;;;;26.53;15.50;;;20.90;99.90;;;;;;5094264;28;20217;-71
2022/06/26 01:25:39;;;;;;;24.93;16.10;;;20.90;99.90;;;;;;5093975;28;20227;-70
2022/06/26 01:28:06;;;;;;;23.23;14.10;;;20.90;99.90;;;;;;5089044;28;20290;-67
2022/06/26 01:30:33;;;;;;;21.37;13.33;;;20.80;99.90;;;;;;5094249;28;20237;-68
2022/06/26 01:33:00;;;;;;;19.67;11.73;;;20.80;99.90;;;;;;5094464;28;20286;-68
2022/06/26 01:35:27;;;;;;;18.27;10.70;;;20.80;99.90;;;;;;5094133;28;20275;-69
2022/06/26 01:37:53;;;;;;;18.27;10.93;;;20.80;99.90;;;;;;5091895;28;20288;-68
2022/06/26 01:40:22;;;;;;;14.13;8.23;;;20.80;99.90;;;;;;5089500;28;20317;-70
2022/06/26 01:42:48;;;;;;;11.53;6.17;;;20.80;99.90;;;;;;5085394;28;20208;-68
2022/06/26 01:45:15;;;;;;;9.53;6.17;;;20.80;99.90;;;;;;5092807;28;20311;-68
2022/06/26 01:47:42;;;;;;;7.53;4.90;;;20.70;99.90;;;;;;5093192;28;20203;-69
2022/06/26 01:50:10;;;;;;;6.07;4.90;;;20.70;99.90;;;;;;5092604;28;20295;-70
2022/06/26 01:52:37;;;;;;;7.80;4.87;;;20.70;99.90;;;;;;5092338;28;20257;-69
2022/06/26 01:55:04;;;;;;;6.53;5.17;;;20.70;99.90;;;;;;5092887;28;20673;-67
2022/06/26 01:57:32;;;;;;;6.40;4.70;;;20.70;99.90;;;;;;5093652;28;20207;-69
2022/06/26 01:59:59;;;;;;;7.60;4.40;;;20.60;99.90;;;;;;5091613;28;20204;-68
2022/06/26 02:02:25;;;;;;;7.33;4.67;;;20.60;99.90;;;;;;5093127;28;20210;-68
2022/06/26 02:04:52;;;;;;;5.00;4.27;;;20.60;99.90;;;;;;5090667;28;20210;-67
2022/06/26 02:07:19;;;;;;;7.17;4.77;;;20.60;99.90;;;;;;5093609;28;20203;-69
2022/06/26 02:15:16;;;;;;;6.57;4.57;;;20.60;99.90;;;;;;5089869;28;20275;-69
2022/06/26 02:17:42;;;;;;;8.60;4.60;;;20.60;99.90;;;;;;5093248;28;20206;-68
2022/06/26 02:20:11;;;;;;;6.23;4.83;;;20.70;99.90;;;;;;5093251;28;20207;-67
2022/06/26 02:22:38;;;;;;;7.57;5.00;;;20.70;99.90;;;;;;5091745;28;20210;-69
2022/06/26 02:25:08;;;;;;;7.60;4.60;;;20.70;99.90;;;;;;5091996;28;20565;-69
2022/06/26 02:27:36;;;;;;;6.47;5.03;;;20.70;99.90;;;;;;5091350;28;20289;-69
2022/06/26 02:30:03;;;;;;;6.70;4.97;;;20.70;99.90;;;;;;5092405;28;20208;-68
2022/06/26 02:32:30;;;;;;;5.60;4.67;;;20.70;99.90;;;;;;5090062;28;20200;-68
2022/06/26 02:34:57;;;;;;;5.80;4.70;;;20.70;99.90;;;;;;5090702;28;20215;-67
2022/06/26 02:37:24;;;;;;;7.90;5.17;;;20.70;99.90;;;;;;5091781;28;20210;-68
2022/06/26 02:39:51;;;;;;;6.37;5.13;;;20.80;99.90;;;;;;5091054;28;20235;-68
2022/06/26 02:42:17;;;;;;;6.77;5.10;;;20.80;99.90;;;;;;5092752;28;20200;-69
2022/06/26 02:44:45;;;;;;;6.30;4.93;;;20.90;99.90;;;;;;5091643;28;20572;-68
2022/06/26 02:47:12;;;;;;;5.97;4.90;;;20.90;99.90;;;;;;5092739;28;20223;-70
2022/06/26 02:49:39;;;;;;;10.03;5.07;;;21.00;99.90;;;;;;5077394;28;20243;-69
2022/06/26 02:52:06;;;;;;;8.53;4.90;;;21.10;99.90;;;;;;5072472;28;20220;-67
2022/06/26 02:54:33;;;;;;;7.73;4.70;;;21.20;99.90;;;;;;5072023;28;20205;-67
2022/06/26 02:57:00;;;;;;;8.30;5.43;;;21.20;99.90;;;;;;5090848;28;20686;-68
2022/06/26 02:59:27;;;;;;;9.20;5.27;;;21.30;99.90;;;;;;5088274;28;20200;-71
2022/06/26 03:01:57;;;;;;;8.00;5.40;;;21.40;99.90;;;;;;5092602;28;20200;-70
2022/06/26 03:04:24;;;;;;;8.67;4.60;;;21.50;99.90;;;;;;5092152;28;20188;-69
2022/06/26 03:06:51;;;;;;;5.27;4.53;;;21.60;99.90;;;;;;5092236;28;20223;-68
2022/06/26 03:09:18;;;;;;;6.63;4.77;;;21.70;99.90;;;;;;5091331;28;20199;-68
2022/06/26 03:11:45;;;;;;;7.70;4.93;;;21.80;99.90;;;;;;5091171;28;20211;-69
2022/06/26 03:14:12;;;;;;;6.93;4.70;;;21.90;99.90;;;;;;5092030;28;20204;-70
2022/06/26 03:16:38;;;;;;;6.87;4.67;;;22.00;99.90;;;;;;5090199;28;20227;-70
2022/06/26 03:19:07;;;;;;;7.03;4.97;;;22.00;99.90;;;;;;5092156;28;20201;-70
2022/06/26 03:21:34;;;;;;;6.30;4.60;;;22.10;99.90;;;;;;5090719;28;20570;-68
2022/06/26 03:24:03;;;;;;;4.97;4.47;;;22.20;99.90;;;;;;5089618;28;20295;-70
2022/06/26 03:26:31;;;;;;;6.77;4.87;;;22.20;99.90;;;;;;5089423;28;21100;-67
2022/06/26 03:28:58;;;;;;;6.60;4.70;;;22.30;99.90;;;;;;5081280;28;20665;-70
2022/06/26 03:31:25;;;;;;;8.70;5.13;;;22.30;99.90;;;;;;5071625;28;20294;-68
2022/06/26 03:33:53;;;;;;;6.03;4.50;;;22.40;99.90;;;;;;5086759;28;20586;-67
2022/06/26 03:36:21;;;;;;;5.87;4.80;;;22.40;99.90;;;;;;5090402;28;20228;-68
2022/06/26 03:38:48;;;;;;;6.40;4.77;;;22.40;99.90;;;;;;5092066;28;20208;-68
2022/06/26 03:41:15;;;;;;;6.00;4.67;;;22.50;99.90;;;;;;5073049;28;20239;-69
2022/06/26 03:43:42;;;;;;;5.57;4.50;;;22.60;99.90;;;;;;5087575;28;20231;-72
2022/06/26 03:46:09;;;;;;;5.87;4.20;;;22.70;99.90;;;;;;5090304;28;20224;-67
2022/06/26 03:48:36;;;;;;;7.93;4.63;;;22.70;99.90;;;;;;5091988;28;20641;-67
2022/06/26 03:51:03;;;;;;;7.60;4.40;;;22.70;99.90;;;;;;5091792;28;20226;-67
2022/06/26 03:53:31;;;;;;;5.50;4.40;;;22.70;99.90;;;;;;5091603;28;20218;-68
2022/06/26 03:55:58;;;;;;;7.43;4.83;;;22.70;99.90;;;;;;5086892;28;20218;-70
2022/06/26 03:58:25;;;;;;;8.50;5.13;;;22.80;99.90;;;;;;5091522;28;20293;-68
2022/06/26 04:00:52;;;;;;;12.07;9.43;;;22.80;99.90;;;;;;5090266;28;20582;-69
2022/06/26 04:03:20;;;;;;;8.20;5.03;;;22.80;99.90;;;;;;5091253;28;20244;-67
2022/06/26 04:05:47;;;;;;;5.60;4.10;;;22.90;99.90;;;;;;5090239;28;20225;-69
2022/06/26 04:08:14;;;;;;;6.00;4.40;;;23.00;99.90;;;;;;5090105;28;20680;-69
2022/06/26 04:10:43;;;;;;;5.77;4.27;;;22.90;99.90;;;;;;5088832;28;20607;-66
2022/06/26 04:13:12;;;;;;;5.83;4.20;;;22.90;99.90;;;;;;5087580;28;20285;-68
2022/06/26 04:15:40;;;;;;;9.10;4.70;;;22.90;99.90;;;;;;5085238;28;20627;-68
2022/06/26 04:18:08;;;;;;;8.13;4.47;;;23.00;99.90;;;;;;5083191;28;20220;-67
2022/06/26 04:20:35;;;;;;;11.20;4.90;;;23.00;99.90;;;;;;5089844;28;20229;-68
2022/06/26 04:23:03;;;;;;;11.30;5.80;;;23.00;99.90;;;;;;5086529;28;20206;-68
2022/06/26 04:25:31;;;;;;;11.47;6.17;;;23.10;99.90;;;;;;5086657;28;20697;-68
2022/06/26 04:28:00;;;;;;;8.87;6.10;;;23.10;99.90;;;;;;5089223;28;20212;-69
2022/06/26 04:30:28;;;;;;;13.93;9.00;;;23.00;99.90;;;;;;5083350;28;20197;-69
2022/06/26 04:32:54;;;;;;;9.53;5.83;;;23.00;99.90;;;;;;5084501;28;20287;-67
2022/06/26 04:35:21;;;;;;;10.07;5.80;;;23.00;99.90;;;;;;5083226;28;20204;-69
2022/06/26 04:37:48;;;;;;;9.73;5.67;;;23.00;99.90;;;;;;5083976;28;20191;-69
2022/06/26 04:40:16;;;;;;;7.73;5.90;;;23.00;99.90;;;;;;5089264;28;20235;-67
2022/06/26 04:42:44;;;;;;;11.27;7.43;;;23.10;99.90;;;;;;5092717;28;20212;-70
2022/06/26 04:45:13;;;;;;;13.00;7.57;;;23.10;99.90;;;;;;5092101;28;20212;-69
2022/06/26 04:47:40;;;;;;;11.47;7.23;;;23.20;99.90;;;;;;5095239;28;20231;-68
2022/06/26 04:50:08;;;;;;;15.40;9.67;;;23.20;99.90;;;;;;5093781;28;20204;-68
2022/06/26 04:52:35;;;;;;;17.23;11.33;;;23.30;99.90;;;;;;5085991;28;20674;-69
2022/06/26 04:55:02;;;;;;;18.17;9.80;;;23.30;99.90;;;;;;5089747;28;20362;-67
2022/06/26 04:57:28;;;;;;;15.73;9.17;;;23.30;99.90;;;;;;5093186;28;20204;-68
2022/06/26 04:59:55;;;;;;;17.40;9.97;;;23.30;99.90;;;;;;5094914;28;20250;-68
2022/06/26 05:02:23;;;;;;;21.87;11.70;;;23.50;99.90;;;;;;5090698;28;20208;-68
2022/06/26 05:04:50;;;;;;;20.00;12.10;;;23.50;99.90;;;;;;5087159;28;20203;-68
2022/06/26 05:07:17;;;;;;;20.43;11.60;;;23.60;99.90;;;;;;5093366;28;20312;-68
2022/06/26 05:09:44;;;;;;;20.40;12.17;;;23.70;99.90;;;;;;5094817;28;20672;-69
2022/06/26 05:12:12;;;;;;;23.87;14.30;;;23.80;99.90;;;;;;5094395;28;20250;-68
2022/06/26 05:14:39;;;;;;;27.13;14.27;;;23.90;99.90;;;;;;5092074;28;20576;-69
2022/06/26 05:17:05;;;;;;;26.60;14.40;;;23.90;99.90;;;;;;5094422;28;20205;-67
2022/06/26 05:19:33;;;;;;;27.20;14.60;;;23.90;99.90;;;;;;5094755;28;20237;-68
2022/06/26 05:22:02;;;;;;;24.53;13.83;;;24.00;99.90;;;;;;5092405;28;20239;-67
2022/06/26 05:24:29;;;;;;;24.90;14.77;;;24.00;99.90;;;;;;5093427;28;20672;-68
2022/06/26 05:26:57;;;;;;;24.63;14.37;;;24.10;99.90;;;;;;5093062;28;20238;-69
2022/06/26 05:29:24;;;;;;;30.13;18.03;;;24.20;99.90;;;;;;5094449;28;20206;-68
2022/06/26 05:31:50;;;;;;;28.33;17.07;;;24.40;99.90;;;;;;5094227;28;20206;-68
2022/06/26 05:34:17;;;;;;;26.07;14.60;;;24.40;99.90;;;;;;5091619;28;20302;-68
2022/06/26 05:36:46;;;;;;;26.10;13.40;;;24.50;99.90;;;;;;5091119;28;20199;-69
2022/06/26 05:39:13;;;;;;;28.93;14.10;;;24.50;99.90;;;;;;5093986;28;20651;-68
2022/06/26 05:41:39;;;;;;;22.23;13.03;;;24.60;99.90;;;;;;5092936;28;20239;-69
2022/06/26 05:44:06;;;;;;;22.73;13.67;;;24.70;99.90;;;;;;5085926;28;20244;-71
2022/06/26 05:46:33;;;;;;;26.60;16.08;;;24.80;99.90;;;;;;5075600;28;20224;-69
2022/06/26 05:49:00;;;;;;;26.00;15.23;;;24.90;99.90;;;;;;5093562;28;20203;-70
2022/06/26 05:51:27;;;;;;;23.73;14.90;;;24.90;99.90;;;;;;5093737;28;20256;-70
2022/06/26 05:53:55;;;;;;;23.13;14.57;;;25.10;99.90;;;;;;5092609;28;20223;-66
2022/06/26 05:56:22;;;;;;;21.60;13.27;;;25.10;99.90;;;;;;5090438;28;20201;-68
2022/06/26 05:58:49;;;;;;;24.58;13.77;;;25.10;99.90;;;;;;5093756;28;20205;-69
2022/06/26 06:01:16;;;;;;;28.83;15.88;;;25.10;99.90;;;;;;5090340;28;20292;-68
2022/06/26 06:03:43;;;;;;;24.60;16.13;;;25.10;99.90;;;;;;5093265;28;20667;-69
2022/06/26 06:06:09;;;;;;;21.95;14.27;;;25.20;99.90;;;;;;5087491;28;20212;-70
2022/06/26 06:08:36;;;;;;;24.13;12.87;;;25.20;99.90;;;;;;5084766;28;20568;-67
2022/06/26 06:11:04;;;;;;;20.93;12.43;;;25.30;99.90;;;;;;5079382;28;20294;-70
2022/06/26 06:13:31;;;;;;;17.30;11.00;;;25.30;99.90;;;;;;5091359;28;20198;-68
2022/06/26 06:15:58;;;;;;;15.57;10.30;;;25.30;99.90;;;;;;5088949;28;20217;-68
2022/06/26 06:18:25;;;;;;;16.33;9.88;;;25.40;99.90;;;;;;5092767;28;20203;-68
2022/06/26 06:20:52;;;;;;;14.67;8.10;;;25.40;99.90;;;;;;5092008;28;20209;-70
2022/06/26 06:23:18;;;;;;;13.25;7.25;;;25.50;99.90;;;;;;5089747;28;20293;-70
2022/06/26 06:25:45;;;;;;;13.77;6.80;;;25.60;99.90;;;;;;5093644;28;20208;-70
2022/06/26 06:28:13;;;;;;;10.03;6.77;;;25.70;99.90;;;;;;5092028;28;20641;-71
2022/06/26 06:30:40;;;;;;;9.47;6.10;;;25.70;99.90;;;;;;5087844;28;20234;-68
2022/06/26 06:33:07;;;;;;;7.78;5.65;;;25.70;99.90;;;;;;5082736;28;20205;-68
2022/06/26 06:35:35;;;;;;;9.63;5.70;;;25.70;99.90;;;;;;5092400;28;20204;-70
2022/06/26 06:38:02;;;;;;;9.17;5.60;;;25.70;99.90;;;;;;5091288;28;20691;-72
2022/06/26 06:40:29;;;;;;;13.27;5.47;;;25.70;99.90;;;;;;5083781;28;20722;-70
2022/06/26 06:42:56;;;;;;;8.37;5.63;;;25.70;99.90;;;;;;5083236;28;20615;-70
2022/06/26 06:45:24;;;;;;;10.23;5.10;;;25.70;99.90;;;;;;5077523;28;20583;-69
2022/06/26 06:47:51;;;;;;;8.47;4.30;;;25.80;99.90;;;;;;5072414;28;20232;-69
2022/06/26 06:50:18;;;;;;;7.40;4.60;;;25.90;99.90;;;;;;5072783;28;20258;-70
2022/06/26 06:52:45;;;;;;;5.25;3.90;;;26.00;99.90;;;;;;5082623;28;20238;-70
2022/06/26 06:55:12;;;;;;;4.90;3.97;;;26.00;99.90;;;;;;5092558;28;20225;-73
2022/06/26 06:57:38;;;;;;;4.88;3.55;;;26.10;99.90;;;;;;5085329;28;20908;-72
2022/06/26 07:00:06;;;;;;;6.35;3.55;;;26.10;99.90;;;;;;5091485;28;20206;-70
2022/06/26 07:02:37;;;;;;;6.97;4.00;;;26.10;99.90;;;;;;5091081;28;20301;-70
2022/06/26 07:05:05;;;;;;;7.00;4.00;;;26.20;99.90;;;;;;5082029;28;20214;-69
2022/06/26 07:07:32;;;;;;;5.10;3.03;;;26.20;99.90;;;;;;5084341;28;20300;-69
2022/06/26 07:09:59;;;;;;;6.35;2.90;;;26.20;99.90;;;;;;5082730;28;20197;-71
2022/06/26 07:12:26;;;;;;;4.70;3.40;;;26.30;99.90;;;;;;5082481;28;20289;-69
2022/06/26 07:14:54;;;;;;;10.95;6.15;;;26.30;99.90;;;;;;5082424;28;20258;-72
2022/06/26 07:17:22;;;;;;;4.65;3.47;;;26.40;99.90;;;;;;5082338;28;20311;-68
2022/06/26 07:19:50;;;;;;;7.07;3.50;;;26.40;99.90;;;;;;5082661;28;20312;-70
2022/06/26 07:22:17;;;;;;;6.00;3.20;;;26.50;99.90;;;;;;5084905;28;20232;-68
2022/06/26 07:24:43;;;;;;;4.25;2.67;;;26.50;99.90;;;;;;5084503;28;20239;-68
2022/06/26 07:27:10;;;;;;;3.40;2.47;;;26.50;99.90;;;;;;5082953;28;20577;-67
2022/06/26 07:29:37;;;;;;;5.72;3.00;;;26.60;98.70;;;;;;5079727;28;20256;-68
2022/06/26 07:32:05;;;;;;;4.45;2.85;;;26.70;99.30;;;;;;5080662;28;20202;-67
2022/06/26 07:34:32;;;;;;;4.53;2.55;;;26.70;99.50;;;;;;5080449;28;20210;-71
2022/06/26 07:37:00;;;;;;;5.85;2.55;;;26.80;99.00;;;;;;5083784;28;20198;-68
2022/06/26 07:39:27;;;;;;;5.18;2.75;;;26.70;98.60;;;;;;5080499;28;20213;-68
2022/06/26 07:41:54;;;;;;;4.78;2.80;;;26.60;99.00;;;;;;5080115;28;20218;-69
2022/06/26 07:44:20;;;;;;;5.65;4.47;;;26.70;99.50;;;;;;5083704;28;20306;-66
2022/06/26 07:46:47;;;;;;;3.90;2.90;;;26.70;99.70;;;;;;5079720;28;20200;-67
2022/06/26 07:49:14;;;;;;;5.28;2.83;;;26.80;99.40;;;;;;5080881;28;20211;-68
2022/06/26 07:51:42;;;;;;;4.25;2.60;;;26.80;99.40;;;;;;5086367;28;20248;-69
2022/06/26 07:54:10;;;;;;;4.35;2.90;;;26.90;98.70;;;;;;5079558;28;20203;-69
2022/06/26 07:56:38;;;;;;;3.67;2.40;;;26.90;98.70;;;;;;5080074;28;20207;-67
2022/06/26 07:59:05;;;;;;;4.35;2.60;;;26.80;99.30;;;;;;5081885;28;20242;-68
2022/06/26 08:01:32;;;;;;;9.73;2.90;;;26.80;98.80;;;;;;5083329;28;20204;-67
2022/06/26 08:03:59;;;;;;;2.58;2.38;;;26.80;98.60;;;;;;5082250;28;20204;-69
2022/06/26 08:06:26;;;;;;;2.40;2.17;;;26.90;98.30;;;;;;5082075;28;20283;-68
2022/06/26 08:08:53;;;;;;;3.95;2.65;;;27.00;98.20;;;;;;5083384;28;20244;-69
2022/06/26 08:11:21;;;;;;;3.33;2.60;;;27.00;97.70;;;;;;5081772;28;20292;-69
2022/06/26 08:13:48;;;;;;;4.47;3.03;;;27.00;97.60;;;;;;5081460;28;20217;-67
2022/06/26 08:16:15;;;;;;;4.10;2.47;;;27.10;97.80;;;;;;5082893;28;20197;-68
2022/06/26 08:18:42;;;;;;;3.53;2.45;;;27.00;97.70;;;;;;5082120;28;20198;-69
2022/06/26 08:23:54;;;;;;;3.20;2.53;;;27.00;98.90;;;;;;5080549;28;20223;-67
2022/06/26 08:26:22;;;;;;;5.55;2.67;;;27.10;98.60;;;;;;5082281;28;20673;-69
2022/06/26 08:28:49;;;;;;;3.22;2.53;;;27.20;98.80;;;;;;5083919;28;20250;-69
2022/06/26 08:31:16;;;;;;;3.33;2.42;;;27.20;99.20;;;;;;5081473;28;20595;-70
2022/06/26 08:33:43;;;;;;;4.07;2.78;;;27.30;98.70;;;;;;5083174;28;20665;-70
2022/06/26 08:36:10;;;;;;;7.75;5.05;;;27.30;98.20;;;;;;5080207;28;20204;-69
2022/06/26 08:38:39;;;;;;;4.28;2.72;;;27.20;98.20;;;;;;5082903;28;20204;-69
2022/06/26 08:41:09;;;;;;;5.88;2.42;;;27.20;98.40;;;;;;5079038;28;20778;-69
2022/06/26 08:43:40;;;;;;;4.28;2.50;;;27.30;98.30;;;;;;5085612;28;20192;-67
2022/06/26 08:46:07;;;;;;;3.25;2.20;;;27.30;98.30;;;;;;5087596;28;20207;-69
2022/06/26 08:48:43;;;;;;;3.28;2.25;;;27.30;98.00;;;;;;5090636;28;20235;-71
2022/06/26 08:51:11;;;;;;;3.60;2.40;;;27.30;97.90;;;;;;5090171;28;20206;-68
2022/06/26 08:53:39;;;;;;;3.72;2.50;;;27.20;97.70;;;;;;5090039;28;20225;-69
2022/06/26 08:56:06;;;;;;;7.18;2.40;;;27.30;97.70;;;;;;5087016;28;20222;-69
2022/06/26 08:58:33;;;;;;;4.30;2.50;;;27.30;97.70;;;;;;5092488;28;20282;-69
2022/06/26 09:01:02;;;;;;;3.03;2.33;;;27.40;97.70;;;;;;5094501;28;20733;-69
2022/06/26 09:03:29;;;;;;;12.50;9.40;;;27.30;96.70;;;;;;5090001;28;20223;-69
2022/06/26 09:05:56;;;;;;;3.47;2.75;;;27.30;97.40;;;;;;5076353;28;20204;-70
2022/06/26 09:08:25;;;;;;;5.10;2.83;;;27.40;97.40;;;;;;5078414;28;20253;-68
2022/06/26 09:10:52;;;;;;;5.15;2.40;;;27.50;96.60;;;;;;5077525;28;20249;-70
2022/06/26 09:13:19;;;;;;;5.97;2.40;;;27.60;95.50;;;;;;5092383;28;20227;-69
2022/06/26 09:15:50;;;;;;;4.13;2.50;;;27.60;94.20;;;;;;5092456;28;20208;-71
2022/06/26 09:18:18;;;;;;;2.65;2.30;;;27.60;94.30;;;;;;5092705;28;20196;-70
2022/06/26 09:20:54;;;;;;;5.63;2.60;;;27.60;93.10;;;;;;5091784;28;20657;-70
2022/06/26 09:23:22;;;;;;;3.58;2.38;;;27.70;93.80;;;;;;5092731;28;20204;-68
2022/06/26 09:25:49;;;;;;;4.65;2.72;;;27.80;94.40;;;;;;5090551;28;20207;-70
2022/06/26 09:28:17;;;;;;;3.75;2.80;;;27.70;94.60;;;;;;5091894;28;20225;-72
2022/06/26 09:30:52;;;;;;;5.05;2.90;;;27.70;94.50;;;;;;5094370;28;20202;-70
2022/06/26 09:33:21;;;;;;;4.25;2.58;;;27.70;95.30;;;;;;5091742;28;20563;-73
2022/06/26 09:35:49;;;;;;;3.45;2.30;;;27.80;94.80;;;;;;5094575;28;20563;-70
2022/06/26 09:38:18;;;;;;;4.28;2.80;;;27.80;94.60;;;;;;5078560;28;20694;-70
2022/06/26 09:40:53;;;;;;;3.55;2.83;;;28.00;94.90;;;;;;5082108;28;20331;-70
2022/06/26 09:43:27;;;;;;;8.45;3.03;;;28.00;94.30;;;;;;5084732;28;20294;-71
2022/06/26 09:45:55;;;;;;;4.03;2.60;;;27.90;94.30;;;;;;5087097;28;20670;-74
2022/06/26 09:48:25;;;;;;;4.57;2.72;;;27.90;93.30;;;;;;5085319;28;20642;-71
2022/06/26 09:50:52;;;;;;;3.75;2.97;;;27.90;93.50;;;;;;5082966;28;20221;-70
2022/06/26 09:53:20;;;;;;;6.25;2.70;;;27.90;93.30;;;;;;5092838;28;20210;-69
2022/06/26 09:55:48;;;;;;;4.57;2.70;;;27.80;92.90;;;;;;5088041;28;20201;-70
2022/06/26 09:58:16;;;;;;;3.78;2.63;;;27.70;91.90;;;;;;5084411;28;20227;-69
2022/06/26 10:06:25;;;;;;;4.63;2.85;;;27.70;92.20;;;;;;5079892;28;20291;-71
2022/06/26 10:06:27;;;;;;;5.03;3.13;;;27.70;92.80;;;;;;5079521;28;20747;-67
2022/06/26 10:08:54;;;;;;;3.00;2.70;;;27.80;90.90;;;;;;5091930;28;20217;-71
2022/06/26 10:11:23;;;;;;;6.32;2.85;;;27.90;92.50;;;;;;5093675;28;20233;-71
2022/06/26 10:13:51;;;;;;;4.57;2.88;;;28.00;93.20;;;;;;5093822;28;20202;-69
2022/06/26 10:16:38;;;;;;;2.95;2.65;;;28.00;93.80;;;;;;5092990;28;20209;-69
2022/06/26 10:19:20;;;;;;;4.70;3.00;;;28.20;93.50;;;;;;5091035;28;20204;-70
2022/06/26 10:21:48;;;;;;;8.23;3.22;;;28.10;93.40;;;;;;5087912;28;20209;-70
2022/06/26 10:24:16;;;;;;;4.82;2.63;;;28.00;93.70;;;;;;5093282;28;20207;-70
2022/06/26 10:26:52;;;;;;;5.63;2.60;;;28.00;93.80;;;;;;5088802;28;20204;-68
2022/06/26 10:29:19;;;;;;;3.65;3.13;;;27.90;94.10;;;;;;5088299;28;20210;-71
2022/06/26 10:31:48;;;;;;;4.72;2.55;;;27.80;93.70;;;;;;5092094;28;20232;-70
2022/06/26 10:34:19;;;;;;;5.65;3.80;;;27.70;93.50;;;;;;5080957;28;20636;-71
2022/06/26 10:36:58;;;;;;;3.92;2.90;;;27.70;94.00;;;;;;5091408;28;20200;-72
2022/06/26 10:39:36;;;;;;;4.22;2.72;;;27.80;93.90;;;;;;5088041;28;20563;-72
2022/06/26 10:45:01;;;;;;;3.58;2.65;;;28.00;94.10;;;;;;5067850;28;20198;-69
2022/06/26 10:47:44;;;;;;;4.63;2.90;;;28.00;94.00;;;;;;5090813;28;20229;-70
2022/06/26 10:50:31;;;;;;;4.85;2.75;;;28.00;93.80;;;;;;5075595;28;20198;-69
2022/06/26 10:53:16;;;;;;;5.78;3.17;;;27.90;93.00;;;;;;5074435;28;20201;-76
2022/06/26 10:55:46;;;;;;;4.70;2.70;;;27.90;93.40;;;;;;5073068;28;20201;-67
2022/06/26 10:58:20;;;;;;;6.03;3.50;;;27.80;93.30;;;;;;5077517;28;20312;-68
2022/06/26 11:00:47;;;;;;;5.93;2.53;;;27.90;93.50;;;;;;5092286;28;20446;-66
2022/06/26 11:03:15;;;;;;;3.63;2.40;;;27.90;93.40;;;;;;5092620;28;20210;-67
2022/06/26 11:05:52;;;;;;;6.43;4.57;;;27.90;93.30;;;;;;5081518;28;20205;-68
2022/06/26 11:08:28;;;;;;;8.05;3.28;;;27.90;92.30;;;;;;5087796;28;20225;-68
2022/06/26 11:10:59;;;;;;;5.63;2.80;;;27.90;93.80;;;;;;5085575;28;20237;-68
2022/06/26 11:13:26;;;;;;;5.55;3.22;;;27.80;94.10;;;;;;5081465;28;20336;-66
2022/06/26 11:15:53;;;;;;;5.43;2.95;;;27.60;94.30;;;;;;5090898;28;20698;-69
2022/06/26 11:18:20;;;;;;;7.60;2.88;;;27.60;95.10;;;;;;5089806;28;20217;-69
2022/06/26 11:20:49;;;;;;;3.58;2.83;;;27.50;95.40;;;;;;5090451;28;20209;-67
2022/06/26 11:23:21;;;;;;;3.58;2.75;;;27.40;95.20;;;;;;5090014;28;20447;-68
2022/06/26 11:25:49;;;;;;;10.02;2.80;;;27.30;95.50;;;;;;5076362;28;20651;-68
2022/06/26 11:28:17;;;;;;;6.20;3.05;;;27.40;95.90;;;;;;5088181;28;20234;-68
2022/06/26 11:30:46;;;;;;;9.38;3.17;;;27.50;95.40;;;;;;5092274;28;20211;-67
2022/06/26 11:33:14;;;;;;;3.10;2.78;;;27.60;96.40;;;;;;5090710;28;20578;-67
2022/06/26 11:35:41;;;;;;;3.17;2.85;;;27.70;96.70;;;;;;5092136;28;20305;-68
2022/06/26 11:38:13;;;;;;;3.67;2.78;;;27.80;96.70;;;;;;5090522;28;20223;-69
2022/06/26 11:40:42;;;;;;;6.03;3.20;;;27.80;96.90;;;;;;5091317;28;20664;-69
2022/06/26 11:43:09;;;;;;;3.03;2.72;;;27.70;96.70;;;;;;5087729;28;20215;-70
2022/06/26 11:45:37;;;;;;;4.07;2.70;;;27.70;97.00;;;;;;5078840;28;20572;-70
2022/06/26 11:48:08;;;;;;;4.07;2.90;;;27.70;96.10;;;;;;5071478;28;20201;-68
2022/06/26 11:50:37;;;;;;;4.72;3.13;;;27.70;95.90;;;;;;5087225;28;20210;-67
2022/06/26 11:53:05;;;;;;;6.00;3.28;;;27.70;95.80;;;;;;5091920;28;20205;-72
2022/06/26 11:55:32;;;;;;;3.45;2.92;;;27.80;96.10;;;;;;5091748;28;20218;-68
2022/06/26 11:58:02;;;;;;;4.07;3.08;;;27.80;95.20;;;;;;5089806;28;20211;-67
2022/06/26 12:00:29;;;;;;;4.22;2.60;;;27.90;95.80;;;;;;5089562;28;20642;-68
2022/06/26 12:02:56;;;;;;;3.00;2.75;;;28.00;94.50;;;;;;5090191;28;20210;-69
2022/06/26 12:05:24;;;;;;;3.88;2.53;;;28.00;94.00;;;;;;5091490;28;20216;-67
2022/06/26 12:07:53;;;;;;;3.95;2.75;;;28.00;94.10;;;;;;5090917;28;20672;-68
2022/06/26 12:10:31;;;;;;;3.85;2.70;;;28.10;94.10;;;;;;5089018;28;20663;-68
2022/06/26 12:12:58;;;;;;;3.85;2.50;;;28.10;94.60;;;;;;5090009;28;20289;-67
2022/06/26 12:15:27;;;;;;;3.20;2.80;;;28.20;94.10;;;;;;5089466;28;20205;-70
2022/06/26 12:17:58;;;;;;;5.60;2.97;;;28.30;93.90;;;;;;5086903;28;20206;-68
2022/06/26 12:20:25;;;;;;;4.93;3.00;;;28.40;93.90;;;;;;5087710;28;20202;-70
2022/06/26 12:22:54;;;;;;;3.20;2.22;;;28.30;93.50;;;;;;5084330;28;20575;-66
2022/06/26 12:25:29;;;;;;;2.60;2.28;;;28.10;93.90;;;;;;5082307;28;20301;-70
2022/06/26 12:27:56;;;;;;;3.88;2.40;;;27.90;94.30;;;;;;5080032;28;20214;-67
2022/06/26 12:30:26;;;;;;;4.18;2.50;;;27.80;93.90;;;;;;5072512;28;20582;-70
2022/06/26 12:32:53;;;;;;;4.22;2.25;;;27.70;93.90;;;;;;5075252;28;20217;-69
2022/06/26 12:35:20;;;;;;;4.07;3.33;;;27.60;93.80;;;;;;5083705;28;20303;-68
2022/06/26 12:37:47;;;;;;;4.85;3.20;;;27.60;93.30;;;;;;5094503;28;20221;-67
2022/06/26 12:40:14;;;;;;;3.00;2.30;;;27.60;93.10;;;;;;5094347;28;20241;-69
2022/06/26 12:42:41;;;;;;;2.35;2.13;;;27.60;93.30;;;;;;5095453;28;20204;-69
2022/06/26 12:45:09;;;;;;;3.40;2.28;;;27.60;93.90;;;;;;5094225;28;20646;-68
2022/06/26 12:47:37;;;;;;;6.88;4.78;;;27.70;93.80;;;;;;5091678;28;20231;-69
2022/06/26 12:50:05;;;;;;;5.18;2.50;;;27.70;93.40;;;;;;5092726;28;20220;-68
2022/06/26 12:52:33;;;;;;;4.90;2.65;;;27.80;94.10;;;;;;5095237;28;20289;-67
2022/06/26 12:55:00;;;;;;;4.45;2.10;;;27.90;93.70;;;;;;5092502;28;20252;-70
2022/06/26 12:57:27;;;;;;;2.67;2.47;;;27.90;93.30;;;;;;5095168;28;20559;-68
2022/06/26 12:59:54;;;;;;;3.85;2.20;;;28.00;93.20;;;;;;5093349;28;20225;-66
2022/06/26 13:02:20;;;;;;;4.65;2.05;;;28.10;92.50;;;;;;5091779;28;20645;-69